Česky Dansk Deutsch English Español Suomi Français Magyar Italiano Nederlands norsk Polski Português svenska Türkçe

 

Het Weer

Kauhava (Finland)

09:20, 19 November 2014 (GMT)

NWNNE
WE
SWSSE
Home            
Kauhava Ilmajoki Seinajoki-Ilmajok Vaasa Kruunupyy Ahtari Viitasaari Jyvaskyla Umea Flygplats Halli Tampere / Pirkkala Pori Skelleftea Airport Ornskoldsvik Airport Hailuoto Oulu Kuopio Kajaani Kramfors Flygplats Lycksele Mikkeli Varkaus Lulea / Kallax

Om een weerknop op uw website of weblog te plaatsen, copieer onderstaande code en plak die in uw pagina. In het eerste vakje staat HTML-code, in het tweede vakje UBB-code.


Add to Google

Details

Wind speed:2 bf, 5 kn, 2.6 m/s, 5.8 miles/h, 9.3 km/h
Wind direction:S, 190°
Visibility:Greater than 10000 m, 10 km, 32800 ft, 6.2 miles
Clouds:Geschlossene Wolkendecke at 1200 ft, 366 m
Gefühlte Temperatur:-3°C, 26°F
Dew-point:-1°C, 30°F
Atmospheric pressure:1034 hPa, 775.6 mmHg, 30.53 inHg, 1.020 atm
METAR:EFKA 190920Z 19005KT 9999 OVC012 00/M01 Q1034

Snelkoppelingen

Actuele weersinformatie van de hele wereld. Voeg locaties toe met het plus (+) symbool. Deze snelkoppelingen kunnen worden toegevoegd aan Google.

Lid van de Technetium groep

website free tracking
StatCounter NetStat W3C Validator

06-12-2019 10:19:06
astro.technetium.be money.technetium.be phote.technetium.be tafeltennistafel.technetium.be www.ligfiets.net